Time;durP1;ratioP1;P1;durP2;ratioP2;P2;SDS_P1;SDS_P2;PMS_P1;PMS_P2;Temp;Humidity;BMP_temperature;BMP_pressure;BME280_temperature;BME280_humidity;BME280_pressure;Samples;Min_cycle;Max_cycle;Signal;HPM_P1;HPM_P2
2020/12/17 00:07:41;;;;;;;102.77;50.57;;;;;;;3.99;87.58;100326.55;516619;1096;65200;-60
2020/12/17 00:17:47;;;;;;;102.20;47.30;;;;;;;4.00;87.18;100324.82;517184;1095;65593;-61
2020/12/17 00:27:51;;;;;;;80.43;38.70;;;;;;;4.06;86.97;100335.05;519975;1095;65698;-61
2020/12/17 00:37:56;;;;;;;100.60;54.57;;;;;;;4.09;87.33;100339.32;517347;1095;65186;-61
2020/12/17 00:48:01;;;;;;;82.67;43.57;;;;;;;4.19;87.50;100349.44;517459;1090;65311;-62
2020/12/17 00:58:05;;;;;;;66.53;36.03;;;;;;;4.22;86.61;100342.48;517307;1097;65463;-61
2020/12/17 01:08:09;;;;;;;72.40;39.05;;;;;;;4.15;86.42;100333.95;517478;1090;65262;-61
2020/12/17 01:18:15;;;;;;;64.87;37.63;;;;;;;4.13;86.20;100335.73;517110;1097;65243;-61
2020/12/17 01:28:19;;;;;;;60.97;35.63;;;;;;;4.10;86.31;100325.43;516955;1098;65140;-61
2020/12/17 01:38:23;;;;;;;57.27;31.17;;;;;;;4.02;87.05;100334.27;517894;1095;65243;-61
2020/12/17 01:48:28;;;;;;;58.07;33.10;;;;;;;3.99;87.13;100325.72;517367;1095;65175;-61
2020/12/17 01:58:40;;;;;;;57.60;31.30;;;;;;;3.90;86.75;100319.84;517668;1095;65287;-60
2020/12/17 02:08:44;;;;;;;56.80;31.27;;;;;;;3.84;86.67;100317.38;517498;1095;65125;-60
2020/12/17 02:18:52;;;;;;;51.25;29.80;;;;;;;3.73;86.68;100322.85;517716;1095;65261;-61
2020/12/17 02:28:56;;;;;;;51.57;31.53;;;;;;;3.71;87.03;100315.98;517656;1095;65240;-61
2020/12/17 02:39:00;;;;;;;56.43;31.60;;;;;;;3.72;86.61;100315.95;517386;1095;65232;-61
2020/12/17 02:49:04;;;;;;;53.17;30.00;;;;;;;3.74;87.18;100319.36;517906;1090;65624;-60
2020/12/17 02:59:08;;;;;;;57.53;30.97;;;;;;;3.77;86.73;100316.68;518081;1095;65147;-61
2020/12/17 03:09:13;;;;;;;50.83;30.30;;;;;;;3.70;86.50;100324.66;517521;1095;65157;-60
2020/12/17 03:19:17;;;;;;;48.17;29.07;;;;;;;3.62;87.30;100327.45;517258;1095;65205;-61
2020/12/17 03:29:21;;;;;;;51.20;29.27;;;;;;;3.65;87.14;100324.77;517418;1095;65172;-61
2020/12/17 03:39:25;;;;;;;48.30;27.67;;;;;;;3.62;87.17;100327.45;517364;1090;65269;-62
2020/12/17 03:49:29;;;;;;;52.57;30.37;;;;;;;3.61;87.08;100331.77;517632;1090;65341;-61
2020/12/17 03:59:33;;;;;;;46.50;27.73;;;;;;;3.61;87.28;100323.98;517675;1095;65836;-61
2020/12/17 04:09:37;;;;;;;60.15;32.10;;;;;;;3.62;86.57;100335.23;518108;1095;65276;-61
2020/12/17 04:19:44;;;;;;;55.70;31.37;;;;;;;3.58;86.81;100323.19;517324;1096;65655;-61
2020/12/17 04:29:49;;;;;;;59.43;30.93;;;;;;;3.53;87.21;100327.66;517316;1095;65474;-61
2020/12/17 04:39:53;;;;;;;53.03;29.20;;;;;;;3.38;87.37;100324.53;517079;1095;65278;-61
2020/12/17 04:50:04;;;;;;;54.73;31.57;;;;;;;3.33;87.09;100344.53;517562;1095;65480;-60
2020/12/17 05:00:08;;;;;;;53.67;30.80;;;;;;;3.28;87.67;100331.64;517561;1095;65182;-61
2020/12/17 05:10:12;;;;;;;64.63;34.47;;;;;;;3.26;87.72;100335.19;517384;1097;65179;-61
2020/12/17 05:20:17;;;;;;;61.07;31.17;;;;;;;3.22;87.38;100331.80;517463;1095;65235;-61
2020/12/17 05:30:29;;;;;;;65.77;36.33;;;;;;;3.17;87.36;100323.23;517381;1090;65179;-62
2020/12/17 05:40:41;;;;;;;56.50;31.97;;;;;;;3.14;88.02;100323.31;517324;1095;65647;-61
2020/12/17 05:50:58;;;;;;;55.80;31.00;;;;;;;3.13;87.88;100321.61;517477;1090;65178;-60
2020/12/17 06:01:09;;;;;;;62.23;31.93;;;;;;;3.13;87.65;100325.07;517735;1095;65514;-61
2020/12/17 06:11:14;;;;;;;55.50;28.23;;;;;;;3.11;87.82;100332.01;517239;1090;65137;-60
2020/12/17 06:21:19;;;;;;;65.73;32.20;;;;;;;3.18;87.85;100335.36;517523;1095;65223;-60
2020/12/17 06:31:26;;;;;;;47.73;27.00;;;;;;;3.17;88.14;100341.41;517337;1095;65153;-60
2020/12/17 06:41:31;;;;;;;56.03;30.23;;;;;;;3.21;87.88;100354.29;517555;1095;65245;-59
2020/12/17 06:51:42;;;;;;;54.00;28.10;;;;;;;3.22;87.57;100357.75;517312;1090;65238;-61
2020/12/17 07:01:47;;;;;;;49.13;28.17;;;;;;;3.27;87.85;100355.06;517624;1095;65159;-61
2020/12/17 07:11:52;;;;;;;59.85;31.75;;;;;;;3.30;87.65;100357.58;517550;1095;65240;-60
2020/12/17 07:22:07;;;;;;;52.90;28.10;;;;;;;3.35;87.74;100360.95;518132;1095;65457;-59
2020/12/17 07:32:34;;;;;;;53.03;29.03;;;;;;;3.46;87.44;100360.70;517471;1095;65249;-61
2020/12/17 07:42:37;;;;;;;;;;;;;;;3.46;87.20;100358.97;517275;1095;65176;-61
2020/12/17 07:52:41;;;;;;;62.43;30.30;;;;;;;3.52;86.99;100355.38;517205;1095;65134;-60
2020/12/17 08:02:45;;;;;;;54.33;28.40;;;;;;;3.64;87.11;100357.70;517031;1095;65271;-61
2020/12/17 08:12:50;;;;;;;53.40;27.10;;;;;;;3.64;86.74;100355.10;517015;1090;65188;-62
2020/12/17 08:22:55;;;;;;;56.95;30.55;;;;;;;3.72;86.67;100367.03;517244;1095;65176;-64
2020/12/17 08:32:59;;;;;;;55.33;34.00;;;;;;;3.84;86.66;100368.51;517936;1095;65175;-63
2020/12/17 08:43:10;;;;;;;66.83;34.27;;;;;;;3.94;86.19;100380.39;517455;1095;65581;-64
2020/12/17 08:53:23;;;;;;;52.43;29.57;;;;;;;4.08;86.29;100382.64;516963;1095;65146;-62
2020/12/17 09:03:29;;;;;;;59.55;33.02;;;;;;;4.18;85.65;100378.09;519066;1090;10001121;-57
2020/12/17 09:13:34;;;;;;;56.80;32.27;;;;;;;4.13;85.82;100364.33;517096;1090;65469;-63
2020/12/17 09:23:38;;;;;;;64.47;34.20;;;;;;;4.13;86.39;100375.59;517041;1096;65156;-62
2020/12/17 09:33:42;;;;;;;54.50;29.87;;;;;;;4.19;86.31;100369.39;516924;1097;65230;-63
2020/12/17 09:43:50;;;;;;;58.20;33.53;;;;;;;4.22;86.70;100374.50;516490;1095;65252;-61
2020/12/17 09:54:04;;;;;;;60.83;32.97;;;;;;;4.36;86.31;100355.97;516532;1090;65319;-55
2020/12/17 10:04:09;;;;;;;56.80;32.63;;;;;;;4.35;86.36;100356.86;516796;1096;65169;-61
2020/12/17 10:14:12;;;;;;;49.70;29.55;;;;;;;4.30;85.70;100353.50;516667;1095;65565;-58
2020/12/17 10:24:16;;;;;;;53.33;33.70;;;;;;;4.25;86.11;100358.83;516668;1095;65240;-59
2020/12/17 10:34:22;;;;;;;52.60;29.07;;;;;;;4.18;86.21;100352.92;516728;1090;65149;-59
2020/12/17 10:44:28;;;;;;;36.70;22.73;;;;;;;4.10;85.78;100352.29;516970;1090;65193;-61
2020/12/17 10:54:32;;;;;;;43.87;26.13;;;;;;;4.11;85.48;100347.92;516894;1095;65276;-69
2020/12/17 11:04:36;;;;;;;34.53;22.77;;;;;;;4.10;85.28;100331.50;516730;1095;65229;-69
2020/12/17 11:14:40;;;;;;;37.80;24.03;;;;;;;4.03;85.11;100320.38;516399;1097;65710;-73
2020/12/17 11:24:46;;;;;;;46.17;27.00;;;;;;;4.05;85.17;100309.95;516524;1096;65662;-66
2020/12/17 11:34:50;;;;;;;46.43;29.57;;;;;;;4.14;84.84;100296.72;516576;1090;65822;-60
2020/12/17 11:44:54;;;;;;;45.20;28.63;;;;;;;4.23;85.19;100295.63;516836;1090;65149;-60
2020/12/17 11:54:58;;;;;;;39.97;24.53;;;;;;;4.13;84.08;100301.95;516364;1090;65152;-59
2020/12/17 12:05:03;;;;;;;45.00;28.50;;;;;;;4.23;84.41;100307.78;516450;1090;65178;-59
2020/12/17 12:15:07;;;;;;;39.57;26.67;;;;;;;4.20;83.12;100291.34;516575;1090;65227;-64
2020/12/17 12:25:11;;;;;;;41.87;29.43;;;;;;;4.18;83.83;100267.14;517185;1095;65249;-61
2020/12/17 12:35:15;;;;;;;41.00;28.47;;;;;;;4.20;82.71;100269.72;516975;1095;65280;-63
2020/12/17 12:45:19;;;;;;;43.53;28.90;;;;;;;4.21;83.18;100263.62;516674;1097;65570;-64
2020/12/17 12:55:23;;;;;;;33.50;23.67;;;;;;;3.94;82.60;100242.67;517301;1096;65466;-65
2020/12/17 13:05:27;;;;;;;38.17;24.63;;;;;;;3.74;82.94;100233.64;517413;1097;65229;-63
2020/12/17 13:15:31;;;;;;;40.80;27.67;;;;;;;3.57;83.00;100222.81;517198;1095;65259;-62
2020/12/17 13:25:35;;;;;;;39.83;27.27;;;;;;;3.52;83.58;100227.27;517125;1097;65233;-59
2020/12/17 13:35:39;;;;;;;37.93;25.00;;;;;;;3.40;83.38;100236.20;516755;1090;65210;-59
2020/12/17 13:45:43;;;;;;;41.57;26.33;;;;;;;3.31;83.04;100222.58;517242;1090;65236;-59
2020/12/17 13:55:47;;;;;;;42.03;27.77;;;;;;;3.16;83.47;100226.38;517032;1097;65221;-59
2020/12/17 14:05:51;;;;;;;45.37;29.33;;;;;;;3.01;83.63;100219.79;517495;1090;65160;-59
2020/12/17 14:15:55;;;;;;;42.60;30.03;;;;;;;2.85;83.69;100229.66;517303;1090;65256;-58
2020/12/17 14:26:03;;;;;;;44.93;31.27;;;;;;;2.64;83.79;100230.98;516972;1090;65284;-61
2020/12/17 14:36:07;;;;;;;50.30;31.05;;;;;;;2.42;83.87;100246.97;516992;1097;65188;-62
2020/12/17 14:46:11;;;;;;;47.80;29.57;;;;;;;2.26;84.11;100240.38;516802;1090;65757;-65
2020/12/17 14:56:15;;;;;;;52.23;35.60;;;;;;;2.07;84.83;100233.78;517215;1096;65590;-63
2020/12/17 15:06:19;;;;;;;62.73;39.53;;;;;;;1.90;84.93;100252.22;517268;1097;65236;-65
2020/12/17 15:16:23;;;;;;;68.15;41.50;;;;;;;1.78;85.25;100257.61;517182;1090;65159;-59
2020/12/17 15:26:27;;;;;;;71.25;42.95;;;;;;;1.68;84.79;100269.88;517170;1097;65217;-62
2020/12/17 15:36:31;;;;;;;77.27;48.37;;;;;;;1.60;84.88;100257.06;516900;1097;65163;-66
2020/12/17 15:46:35;;;;;;;63.33;40.63;;;;;;;1.65;85.46;100241.45;516962;1095;65237;-67
2020/12/17 15:56:39;;;;;;;63.77;40.70;;;;;;;1.65;85.27;100237.11;516817;1097;65179;-61
2020/12/17 16:06:44;;;;;;;56.33;39.30;;;;;;;1.68;85.38;100226.73;516925;1096;65201;-63
2020/12/17 16:16:50;;;;;;;59.13;35.23;;;;;;;1.78;85.26;100223.95;517134;1095;65140;-64
2020/12/17 16:26:54;;;;;;;58.67;36.33;;;;;;;1.90;85.50;100234.09;517528;1095;65423;-63
2020/12/17 16:36:58;;;;;;;63.97;37.60;;;;;;;2.04;85.40;100236.44;517134;1095;66522;-57
2020/12/17 16:47:03;;;;;;;54.37;33.03;;;;;;;2.22;84.98;100235.23;517244;1090;65396;-55
2020/12/17 16:57:10;;;;;;;41.85;28.25;;;;;;;2.38;85.17;100233.20;516524;1096;65156;-63
2020/12/17 17:07:16;;;;;;;38.63;25.15;;;;;;;2.41;84.57;100223.66;516472;1097;65921;-59
2020/12/17 17:17:20;;;;;;;38.63;23.03;;;;;;;2.52;84.32;100227.75;516936;1095;65297;-61
2020/12/17 17:27:24;;;;;;;36.87;22.97;;;;;;;2.62;84.02;100231.00;517383;1095;65256;-61
2020/12/17 17:37:29;;;;;;;34.90;23.30;;;;;;;2.62;83.16;100233.59;516638;1095;65232;-60
2020/12/17 17:47:33;;;;;;;44.97;27.10;;;;;;;2.67;82.97;100230.91;516863;1095;65236;-61
2020/12/17 17:57:37;;;;;;;43.93;28.17;;;;;;;2.67;82.79;100236.09;517201;1095;65889;-60
2020/12/17 18:07:42;;;;;;;36.90;24.50;;;;;;;2.45;82.85;100217.55;517072;1097;65245;-60
2020/12/17 18:17:47;;;;;;;31.63;22.13;;;;;;;2.35;82.98;100235.86;508344;1092;10001824;-62
2020/12/17 18:27:51;;;;;;;41.03;25.90;;;;;;;2.24;83.14;100264.56;516422;1097;65149;-68
2020/12/17 18:37:56;;;;;;;43.37;26.77;;;;;;;2.23;83.26;100246.47;516491;1097;65262;-64
2020/12/17 18:48:01;;;;;;;46.83;28.00;;;;;;;2.20;82.98;100242.20;516499;1090;65287;-64
2020/12/17 18:58:05;;;;;;;47.77;29.67;;;;;;;2.21;82.94;100243.06;516664;1090;66435;-66
2020/12/17 19:08:08;;;;;;;54.77;34.03;;;;;;;2.18;82.82;100232.73;516282;1097;65176;-67
2020/12/17 19:18:13;;;;;;;56.00;34.80;;;;;;;2.16;83.00;100231.91;516483;1097;65653;-67
2020/12/17 19:28:17;;;;;;;69.03;41.60;;;;;;;2.18;83.17;100256.05;517417;1090;65252;-64
2020/12/17 19:38:21;;;;;;;64.40;41.95;;;;;;;2.22;83.12;100270.68;516877;1097;66708;-66
2020/12/17 19:48:25;;;;;;;58.73;36.33;;;;;;;2.22;82.48;100284.47;516668;1090;65239;-69
2020/12/17 19:58:29;;;;;;;53.33;32.37;;;;;;;2.16;82.58;100283.73;516763;1090;65236;-63
2020/12/17 20:08:33;;;;;;;49.20;29.85;;;;;;;2.14;82.31;100278.59;516641;1095;65235;-63
2020/12/17 20:18:37;;;;;;;38.83;26.37;;;;;;;2.13;82.25;100265.66;516341;1097;65327;-64
2020/12/17 20:28:41;;;;;;;44.37;26.33;;;;;;;2.16;81.97;100271.65;516770;1097;65280;-63
2020/12/17 20:38:46;;;;;;;37.07;24.27;;;;;;;2.19;82.47;100268.99;516541;1095;65587;-64
2020/12/17 20:48:53;;;;;;;35.07;24.27;;;;;;;2.31;82.69;100267.92;516843;1095;65235;-64
2020/12/17 20:59:00;;;;;;;35.85;24.82;;;;;;;2.35;82.51;100256.59;516843;1097;65169;-60
2020/12/17 21:09:05;;;;;;;42.20;28.17;;;;;;;2.36;81.87;100253.13;517049;1097;65268;-70
2020/12/17 21:19:12;;;;;;;34.30;22.10;;;;;;;2.41;81.85;100236.61;516727;1095;65201;-61
2020/12/17 21:29:16;;;;;;;35.67;22.73;;;;;;;2.40;81.99;100240.09;516955;1096;65182;-61
2020/12/17 21:39:20;;;;;;;40.87;29.23;;;;;;;2.38;82.02;100237.55;517969;1096;65143;-61
2020/12/17 21:49:24;;;;;;;42.13;26.43;;;;;;;2.33;81.86;100229.86;517163;1095;65149;-61
2020/12/17 21:59:34;;;;;;;41.37;27.07;;;;;;;2.34;81.96;100241.07;516753;1090;65268;-60
2020/12/17 22:09:38;;;;;;;37.53;22.52;;;;;;;2.34;82.62;100246.25;517153;1097;65450;-62
2020/12/17 22:19:42;;;;;;;28.03;19.77;;;;;;;2.37;82.28;100249.64;517323;1095;65153;-61
2020/12/17 22:29:46;;;;;;;27.27;19.47;;;;;;;2.41;82.22;100252.17;516936;1097;65255;-62
2020/12/17 22:39:50;;;;;;;30.23;19.63;;;;;;;2.38;82.49;100247.92;516777;1096;65402;-65
2020/12/17 22:49:54;;;;;;;27.70;19.13;;;;;;;2.37;82.51;100249.64;516931;1090;65255;-60
2020/12/17 23:00:00;;;;;;;31.43;19.87;;;;;;;2.37;82.82;100244.46;516910;1090;65259;-61
2020/12/17 23:10:04;;;;;;;29.43;19.43;;;;;;;2.36;82.42;100245.34;517278;1095;65179;-64
2020/12/17 23:20:13;;;;;;;24.97;17.13;;;;;;;2.21;82.53;100237.88;517619;1095;65138;-62
2020/12/17 23:30:18;;;;;;;26.27;17.23;;;;;;;1.95;82.61;100239.19;516983;1097;65151;-62
2020/12/17 23:40:25;;;;;;;25.83;15.83;;;;;;;1.74;82.78;100233.53;516866;1097;65269;-63
2020/12/17 23:50:30;;;;;;;26.60;16.90;;;;;;;1.60;82.67;100241.52;517190;1095;66257;-61
